This is the latest recevied weather packets stored in our database for station/object CW79215. If no packets are shown the sender has not sent any weather packets the latest 10 day(s).
| Time | Temp. | Humidity | Pressure | Rain* | Wind** | Luminosity | Snow |
|---|---|---|---|---|---|---|---|
| 1777808231 | 23.33° C | 36% | 1018.3 hPa | - | - | - | - |
| 1777807330 | 22.78° C | 36% | 1018.4 hPa | - | - | - | - |
| 1777806430 | 22.78° C | 34% | 1018.4 hPa | - | - | - | - |
| 1777805530 | 22.22° C | 35% | 1018.5 hPa | - | - | - | - |
| 1777804630 | 22.22° C | 36% | 1018.6 hPa | - | - | - | - |
| 1777803730 | 22.22° C | 34% | 1018.7 hPa | - | - | - | - |
| 1777802830 | 22.78° C | 31% | 1019 hPa | - | - | - | - |
| 1777801930 | 22.78° C | 31% | 1019 hPa | - | - | - | - |
| 1777801030 | 22.78° C | 32% | 1019.1 hPa | - | - | - | - |
| 1777800130 | 22.22° C | 35% | 1019.3 hPa | - | - | - | - |
| 1777799230 | 22.22° C | 33% | 1019.4 hPa | - | - | - | - |
| 1777798330 | 22.78° C | 33% | 1019.5 hPa | - | - | - | - |
| 1777797429 | 20.56° C | 40% | 1019.7 hPa | - | - | - | - |
| 1777796529 | 21.11° C | 40% | 1019.8 hPa | - | - | - | - |
| 1777795629 | 21.11° C | 46% | 1020 hPa | - | - | - | - |
| 1777794729 | 21.11° C | 47% | 1020 hPa | - | - | - | - |
| 1777793829 | 19.44° C | 53% | 1020.1 hPa | - | - | - | - |
| 1777792929 | 18.33° C | 55% | 1020.1 hPa | - | - | - | - |
| 1777792029 | 16.67° C | 60% | 1020.3 hPa | - | - | - | - |
| 1777791129 | 16.67° C | 61% | 1020.4 hPa | - | - | - | - |
| 1777790237 | 16.11° C | 63% | 1020.4 hPa | - | - | - | - |
| 1777789337 | 16.67° C | 61% | 1020.3 hPa | - | - | - | - |
| 1777788437 | 16.67° C | 63% | 1020.3 hPa | - | - | - | - |
| 1777787537 | 14.44° C | 71% | 1020.2 hPa | - | - | - | - |
| 1777786637 | 13.89° C | 73% | 1020.3 hPa | - | - | - | - |
* Rain since midnight (hover to see other rain measurements)
** Current wind speed in m/s (hover to see current wind gust speed)